createdAt,value
2018-12-06T00:02:12.788Z,7.40
2018-12-06T00:04:42.557Z,7.40
2018-12-06T00:07:12.650Z,7.40
2018-12-06T00:09:42.440Z,7.50
2018-12-06T00:12:12.393Z,7.50
2018-12-06T00:14:42.164Z,7.50
2018-12-06T00:17:12.242Z,7.50
2018-12-06T00:19:41.895Z,7.50
2018-12-06T00:22:11.744Z,7.60
2018-12-06T00:24:41.572Z,7.60
2018-12-06T00:27:11.352Z,7.60
2018-12-06T00:29:43.416Z,7.60
2018-12-06T00:32:13.144Z,7.60
2018-12-06T00:34:43.053Z,7.60
2018-12-06T00:37:12.976Z,7.60
2018-12-06T00:39:44.082Z,7.60
2018-12-06T00:42:14.032Z,7.60
2018-12-06T00:44:43.936Z,7.60
2018-12-06T00:47:13.665Z,7.50
2018-12-06T00:49:43.422Z,7.60
2018-12-06T00:52:13.092Z,7.60
2018-12-06T00:54:42.830Z,7.60
2018-12-06T00:57:12.796Z,7.60
2018-12-06T00:59:42.469Z,7.60
2018-12-06T01:02:12.335Z,7.70
2018-12-06T01:04:42.201Z,7.70
2018-12-06T01:07:12.045Z,7.70
2018-12-06T01:09:41.869Z,7.70
2018-12-06T01:12:11.781Z,7.70
2018-12-06T01:14:42.085Z,7.70
2018-12-06T01:17:11.884Z,7.70
2018-12-06T01:19:41.632Z,7.70
2018-12-06T01:22:11.490Z,7.70
2018-12-06T01:24:41.168Z,7.70
2018-12-06T01:27:11.064Z,7.70
2018-12-06T01:29:41.163Z,7.70
2018-12-06T01:32:11.609Z,7.70
2018-12-06T01:34:41.420Z,7.70
2018-12-06T01:37:11.181Z,7.80
2018-12-06T01:39:40.946Z,8.10
2018-12-06T01:42:10.859Z,8.60
2018-12-06T01:44:41.009Z,8.90
2018-12-06T01:47:10.788Z,9.00
2018-12-06T01:49:40.705Z,9.20
2018-12-06T01:52:10.617Z,9.30
2018-12-06T01:54:40.329Z,9.50
2018-12-06T01:57:10.240Z,9.70
2018-12-06T01:59:40.104Z,9.80
2018-12-06T02:02:09.873Z,9.60
2018-12-06T02:04:39.732Z,9.60
2018-12-06T02:07:09.507Z,9.70
2018-12-06T02:09:39.379Z,9.90
2018-12-06T02:12:09.264Z,9.90
2018-12-06T02:14:39.588Z,10.00
2018-12-06T02:17:09.345Z,10.00
2018-12-06T02:19:39.264Z,9.80
2018-12-06T02:22:08.959Z,9.90
2018-12-06T02:24:38.968Z,10.00
2018-12-06T02:27:09.990Z,10.10
2018-12-06T02:29:44.956Z,10.10
2018-12-06T02:32:14.641Z,10.10
2018-12-06T02:34:44.593Z,10.20
2018-12-06T02:37:14.651Z,10.30
2018-12-06T02:39:44.502Z,10.30
2018-12-06T02:42:14.450Z,10.40
2018-12-06T02:44:44.302Z,10.30
2018-12-06T02:47:14.070Z,10.30
2018-12-06T02:49:43.986Z,10.20
2018-12-06T02:52:13.832Z,10.30
2018-12-06T02:54:43.709Z,10.30
2018-12-06T02:57:13.474Z,10.40
2018-12-06T02:59:43.262Z,10.30
2018-12-06T03:02:13.097Z,10.40
2018-12-06T03:04:42.971Z,10.40
2018-12-06T03:07:13.021Z,10.40
2018-12-06T03:09:43.171Z,10.40
2018-12-06T03:12:13.116Z,10.40
2018-12-06T03:14:42.920Z,10.40
2018-12-06T03:17:14.784Z,10.40
2018-12-06T03:19:44.594Z,10.30
2018-12-06T03:22:14.596Z,10.20
2018-12-06T03:24:44.474Z,10.40
2018-12-06T03:27:14.293Z,10.30
2018-12-06T03:29:44.717Z,10.50
2018-12-06T03:32:14.725Z,10.50
2018-12-06T03:34:44.453Z,10.40
2018-12-06T03:37:14.409Z,10.30
2018-12-06T03:39:44.077Z,10.20
2018-12-06T03:42:14.405Z,10.20
2018-12-06T03:44:44.112Z,10.20
2018-12-06T03:47:14.193Z,10.20
2018-12-06T03:49:44.066Z,10.20
2018-12-06T03:52:14.000Z,10.10
2018-12-06T03:54:43.844Z,10.00
2018-12-06T03:57:13.621Z,10.00
2018-12-06T03:59:43.529Z,9.90
2018-12-06T04:02:13.407Z,9.90
2018-12-06T04:04:43.264Z,9.80
2018-12-06T04:07:13.120Z,9.80
2018-12-06T04:09:43.165Z,9.80
2018-12-06T04:12:12.949Z,9.80
2018-12-06T04:14:42.632Z,9.80
2018-12-06T04:17:12.424Z,9.80
2018-12-06T04:19:42.342Z,9.70
2018-12-06T04:22:12.004Z,9.70
2018-12-06T04:24:41.880Z,9.70
2018-12-06T04:27:11.839Z,9.70
2018-12-06T04:29:41.636Z,9.70
2018-12-06T04:32:11.312Z,9.70
2018-12-06T04:34:41.112Z,9.70
2018-12-06T04:37:10.936Z,9.70
2018-12-06T04:39:40.681Z,9.70
2018-12-06T04:42:10.689Z,9.70
2018-12-06T04:44:40.463Z,9.70
2018-12-06T04:47:10.368Z,9.70
2018-12-06T04:49:40.464Z,9.70
2018-12-06T04:52:10.260Z,9.70
2018-12-06T04:54:39.910Z,9.60
2018-12-06T04:57:09.933Z,9.70
2018-12-06T04:59:39.806Z,9.70
2018-12-06T05:02:09.764Z,9.70
2018-12-06T05:04:39.523Z,9.70
2018-12-06T05:07:09.376Z,9.60
2018-12-06T05:09:39.208Z,9.70
2018-12-06T05:12:09.012Z,9.60
2018-12-06T05:14:38.812Z,9.70
2018-12-06T05:17:08.845Z,9.70
2018-12-06T05:19:51.966Z,9.70
2018-12-06T05:22:30.430Z,9.70
2018-12-06T05:25:00.208Z,9.80
2018-12-06T05:27:30.005Z,9.80
2018-12-06T05:29:59.820Z,9.80
2018-12-06T05:32:41.406Z,9.80
2018-12-06T05:35:11.323Z,9.80
2018-12-06T05:37:41.421Z,9.80
2018-12-06T05:40:12.001Z,9.80
2018-12-06T05:42:41.803Z,9.80
2018-12-06T05:45:11.749Z,9.80
2018-12-06T05:47:41.812Z,9.80
2018-12-06T05:50:11.577Z,9.80
2018-12-06T05:52:41.441Z,9.80
2018-12-06T05:55:11.200Z,9.70
2018-12-06T05:57:41.268Z,9.70
2018-12-06T06:00:11.136Z,9.70
2018-12-06T06:02:41.268Z,9.80
2018-12-06T06:05:11.655Z,9.70
2018-12-06T06:07:41.452Z,9.70
2018-12-06T06:10:11.458Z,9.80
2018-12-06T06:12:41.378Z,9.80
2018-12-06T06:15:11.284Z,9.80
2018-12-06T06:17:40.784Z,9.80
2018-12-06T06:20:10.623Z,9.80
2018-12-06T06:22:40.504Z,9.90
2018-12-06T06:25:10.333Z,9.90
2018-12-06T06:27:40.299Z,9.90
2018-12-06T06:30:10.268Z,10.00
2018-12-06T06:32:40.176Z,10.00
2018-12-06T06:35:09.945Z,10.00
2018-12-06T06:37:40.040Z,10.00
2018-12-06T06:40:11.569Z,10.00
2018-12-06T06:42:41.372Z,10.00
2018-12-06T06:45:11.368Z,10.10
2018-12-06T06:47:41.378Z,10.10
2018-12-06T06:50:11.273Z,10.10
2018-12-06T06:52:41.033Z,10.10
2018-12-06T06:55:10.849Z,10.10
2018-12-06T06:57:40.656Z,10.10
2018-12-06T07:00:10.964Z,10.00
2018-12-06T07:02:41.068Z,10.00
2018-12-06T07:05:10.666Z,10.00
2018-12-06T07:07:40.595Z,10.10
2018-12-06T07:10:10.452Z,10.10
2018-12-06T07:12:40.400Z,10.10
2018-12-06T07:15:10.478Z,10.00
2018-12-06T07:17:40.573Z,10.10
2018-12-06T07:20:10.456Z,10.10
2018-12-06T07:22:41.393Z,10.10
2018-12-06T07:25:11.254Z,10.10
2018-12-06T07:27:41.168Z,10.10
2018-12-06T07:30:12.414Z,10.10
2018-12-06T07:32:42.712Z,10.20
2018-12-06T07:35:12.548Z,10.10
2018-12-06T07:37:43.505Z,10.10
2018-12-06T07:40:16.216Z,10.10
2018-12-06T07:42:46.065Z,10.10
2018-12-06T07:45:15.944Z,10.10
2018-12-06T07:50:07.324Z,10.20
2018-12-06T07:52:37.188Z,10.20
2018-12-06T07:55:07.536Z,10.20
2018-12-06T07:57:38.500Z,10.20
2018-12-06T08:00:09.501Z,10.20
2018-12-06T08:02:39.358Z,10.20
2018-12-06T08:05:09.233Z,10.20
2018-12-06T08:07:39.261Z,10.30
2018-12-06T08:10:09.629Z,10.30
2018-12-06T08:12:39.475Z,10.20
2018-12-06T08:15:12.417Z,10.20
2018-12-06T08:17:42.276Z,10.20
2018-12-06T08:20:12.037Z,10.20
2018-12-06T08:22:41.849Z,10.20
2018-12-06T08:25:11.652Z,10.30
2018-12-06T08:27:41.750Z,10.30
2018-12-06T08:30:11.453Z,10.30
2018-12-06T08:32:41.401Z,10.30
2018-12-06T08:35:11.176Z,10.40
2018-12-06T08:37:41.308Z,10.40
2018-12-06T08:40:11.000Z,10.40
2018-12-06T08:42:45.582Z,10.50
2018-12-06T08:45:13.484Z,10.50
2018-12-06T08:47:43.536Z,10.50
2018-12-06T08:50:13.315Z,10.50
2018-12-06T08:52:43.193Z,10.60
2018-12-06T08:55:12.942Z,10.60
2018-12-06T08:57:42.904Z,10.60
2018-12-06T09:00:13.109Z,10.70
2018-12-06T09:02:42.940Z,10.70
2018-12-06T09:05:12.908Z,10.70
2018-12-06T09:07:42.840Z,10.70
2018-12-06T09:10:12.255Z,10.70
2018-12-06T09:12:42.353Z,10.70
2018-12-06T09:15:12.057Z,10.80
2018-12-06T09:17:42.097Z,10.80
2018-12-06T09:20:11.888Z,10.80
2018-12-06T09:22:42.020Z,10.80
2018-12-06T09:25:11.860Z,10.70
2018-12-06T09:27:41.776Z,10.70
2018-12-06T09:30:11.544Z,10.70
2018-12-06T09:32:42.240Z,10.80
2018-12-06T09:35:12.137Z,10.90
2018-12-06T09:37:42.143Z,11.00
2018-12-06T09:40:12.168Z,11.00
2018-12-06T09:42:42.361Z,11.20
2018-12-06T09:45:12.259Z,11.30
2018-12-06T09:47:42.101Z,11.40
2018-12-06T09:50:11.876Z,11.40
2018-12-06T09:52:41.745Z,11.40
2018-12-06T09:55:11.765Z,11.40
2018-12-06T09:57:41.428Z,11.40
2018-12-06T10:00:13.420Z,11.50
2018-12-06T10:02:43.352Z,11.60
2018-12-06T10:05:13.465Z,11.60
2018-12-06T10:07:43.430Z,11.70
2018-12-06T10:10:13.448Z,11.70
2018-12-06T10:12:43.368Z,11.80
2018-12-06T10:15:13.211Z,11.90
2018-12-06T10:17:43.140Z,11.90
2018-12-06T10:20:13.061Z,11.90
2018-12-06T10:22:42.765Z,11.90
2018-12-06T10:25:12.510Z,11.90
2018-12-06T10:27:42.340Z,12.00
2018-12-06T10:30:12.212Z,12.20
2018-12-06T10:32:42.133Z,12.10
2018-12-06T10:35:12.965Z,12.10
2018-12-06T10:37:42.721Z,12.10
2018-12-06T10:40:12.789Z,12.20
2018-12-06T10:42:42.612Z,12.20
2018-12-06T10:45:12.512Z,12.20
2018-12-06T10:47:42.438Z,12.20
2018-12-06T10:50:12.444Z,12.30
2018-12-06T10:52:42.236Z,12.30
2018-12-06T10:55:12.173Z,12.30
2018-12-06T10:57:41.889Z,12.40
2018-12-06T11:00:15.976Z,12.40
2018-12-06T11:02:48.896Z,12.40
2018-12-06T11:05:19.082Z,12.40
2018-12-06T11:07:48.933Z,12.50
2018-12-06T11:10:18.576Z,12.40
2018-12-06T11:12:48.640Z,12.40
2018-12-06T11:15:18.560Z,12.50
2018-12-06T11:17:48.588Z,12.50
2018-12-06T11:20:18.384Z,12.60
2018-12-06T11:22:48.288Z,12.60
2018-12-06T11:25:18.094Z,12.70
2018-12-06T11:27:47.948Z,12.70
2018-12-06T11:30:17.838Z,12.60
2018-12-06T11:32:48.776Z,12.60
2018-12-06T11:35:18.652Z,12.60
2018-12-06T11:37:48.708Z,12.60
2018-12-06T11:40:18.477Z,12.60
2018-12-06T11:42:48.437Z,12.50
2018-12-06T11:45:18.308Z,12.60
2018-12-06T11:47:48.344Z,12.60
2018-12-06T11:50:18.136Z,12.50
2018-12-06T11:52:47.892Z,12.60
2018-12-06T11:55:17.691Z,12.60
2018-12-06T11:57:47.717Z,12.60
2018-12-06T12:00:17.481Z,12.70
2018-12-06T12:02:47.448Z,12.70
2018-12-06T12:05:17.200Z,12.70
2018-12-06T12:07:46.973Z,12.70
2018-12-06T12:10:16.828Z,12.80
2018-12-06T12:12:46.493Z,12.80
2018-12-06T12:15:18.644Z,12.80
2018-12-06T12:17:49.805Z,12.80
2018-12-06T12:20:19.997Z,12.90
2018-12-06T12:22:49.847Z,12.90
2018-12-06T12:25:19.656Z,12.90
2018-12-06T12:27:49.460Z,12.90
2018-12-06T12:30:19.285Z,12.90
2018-12-06T12:32:48.884Z,12.90
2018-12-06T12:35:18.946Z,12.90
2018-12-06T12:37:48.931Z,12.90
2018-12-06T12:40:18.773Z,13.00
2018-12-06T12:42:48.553Z,13.00
2018-12-06T12:45:18.409Z,13.00
2018-12-06T12:47:48.065Z,13.00
2018-12-06T12:50:18.128Z,12.90
2018-12-06T12:52:48.008Z,12.90
2018-12-06T12:55:17.905Z,12.80
2018-12-06T12:57:47.712Z,12.80
2018-12-06T13:00:17.523Z,12.80
2018-12-06T13:02:47.544Z,12.80
2018-12-06T13:05:17.316Z,12.80
2018-12-06T13:07:47.220Z,12.70
2018-12-06T13:10:16.928Z,12.70
2018-12-06T13:12:46.784Z,12.70
2018-12-06T13:15:16.697Z,12.70
2018-12-06T13:17:46.577Z,12.70
2018-12-06T13:20:16.523Z,12.60
2018-12-06T13:22:46.405Z,12.70
2018-12-06T13:25:16.281Z,12.70
2018-12-06T13:27:46.129Z,12.80
2018-12-06T13:30:16.076Z,12.80
2018-12-06T13:32:46.009Z,12.80
2018-12-06T13:35:15.804Z,12.80
2018-12-06T13:37:45.829Z,12.70
2018-12-06T13:40:15.963Z,12.80
2018-12-06T13:42:45.894Z,12.70
2018-12-06T13:45:15.945Z,12.70
2018-12-06T13:47:45.820Z,12.70
2018-12-06T13:50:15.669Z,12.80
2018-12-06T13:52:45.539Z,12.80
2018-12-06T13:55:15.397Z,12.80
2018-12-06T13:57:45.261Z,12.80
2018-12-06T14:00:15.261Z,12.80
2018-12-06T14:02:44.946Z,12.70
2018-12-06T14:05:15.083Z,12.70
2018-12-06T14:07:44.668Z,12.70
2018-12-06T14:10:14.904Z,12.60
2018-12-06T14:12:44.708Z,12.60
2018-12-06T14:15:14.744Z,12.60
2018-12-06T14:17:44.676Z,12.60
2018-12-06T14:20:14.489Z,12.60
2018-12-06T14:22:44.767Z,12.60
2018-12-06T14:25:15.068Z,12.70
2018-12-06T14:27:45.115Z,12.70
2018-12-06T14:30:14.847Z,12.70
2018-12-06T14:32:44.836Z,12.70
2018-12-06T14:35:14.882Z,12.70
2018-12-06T14:37:44.768Z,12.70
2018-12-06T14:40:14.715Z,12.70
2018-12-06T14:42:44.496Z,12.70
2018-12-06T14:45:14.335Z,12.70
2018-12-06T14:47:44.357Z,12.70
2018-12-06T14:50:14.444Z,12.70
2018-12-06T14:52:44.248Z,12.70
2018-12-06T14:55:14.080Z,12.70
2018-12-06T14:57:43.928Z,12.70
2018-12-06T15:00:13.949Z,12.70
2018-12-06T15:02:43.943Z,12.70
2018-12-06T15:05:14.084Z,12.70
2018-12-06T15:07:43.824Z,12.60
2018-12-06T15:10:13.812Z,12.60
2018-12-06T15:12:43.975Z,12.50
2018-12-06T15:15:14.008Z,12.50
2018-12-06T15:17:43.952Z,12.40
2018-12-06T15:20:14.069Z,12.40
2018-12-06T15:22:43.947Z,12.40
2018-12-06T15:25:13.765Z,12.40
2018-12-06T15:27:44.053Z,12.40
2018-12-06T15:30:13.944Z,12.30
2018-12-06T15:32:43.877Z,12.30
2018-12-06T15:35:13.772Z,12.20
2018-12-06T15:37:44.988Z,12.30
2018-12-06T15:40:14.688Z,12.20
2018-12-06T15:42:44.543Z,12.20
2018-12-06T15:45:14.308Z,12.20
2018-12-06T15:47:44.165Z,12.20
2018-12-06T15:50:13.941Z,12.20
2018-12-06T15:52:44.088Z,12.20
2018-12-06T15:55:14.189Z,12.20
2018-12-06T15:57:43.984Z,12.10
2018-12-06T16:00:14.241Z,12.10
2018-12-06T16:02:44.120Z,12.00
2018-12-06T16:05:14.081Z,11.90
2018-12-06T16:07:43.850Z,11.80
2018-12-06T16:10:13.878Z,11.70
2018-12-06T16:12:43.677Z,11.60
2018-12-06T16:15:14.052Z,11.60
2018-12-06T16:17:43.842Z,11.50
2018-12-06T16:20:13.776Z,11.50
2018-12-06T16:22:43.437Z,11.50
2018-12-06T16:25:13.296Z,11.50
2018-12-06T16:27:42.960Z,11.40
2018-12-06T16:30:13.092Z,11.40
2018-12-06T16:32:42.949Z,11.40
2018-12-06T16:35:12.900Z,11.40
2018-12-06T16:37:43.073Z,11.40
2018-12-06T16:40:12.845Z,11.40
2018-12-06T16:42:42.528Z,11.40
2018-12-06T16:45:12.688Z,11.40
2018-12-06T16:47:42.733Z,11.40
2018-12-06T16:50:12.636Z,11.40
2018-12-06T16:52:42.645Z,11.40
2018-12-06T16:55:12.332Z,11.40
2018-12-06T16:57:41.985Z,11.50
2018-12-06T17:00:14.686Z,11.40
2018-12-06T17:02:44.530Z,11.50
2018-12-06T17:05:14.493Z,11.40
2018-12-06T17:07:44.260Z,11.40
2018-12-06T17:10:14.324Z,11.50
2018-12-06T17:12:44.033Z,11.50
2018-12-06T17:15:13.823Z,11.60
2018-12-06T17:17:43.756Z,11.60
2018-12-06T17:20:13.586Z,11.60
2018-12-06T17:22:43.437Z,11.60
2018-12-06T17:25:13.297Z,11.70
2018-12-06T17:27:43.280Z,11.70
2018-12-06T17:30:13.858Z,11.70
2018-12-06T17:32:43.925Z,11.80
2018-12-06T17:35:13.663Z,11.80
2018-12-06T17:37:43.342Z,11.80
2018-12-06T17:40:13.500Z,11.80
2018-12-06T17:42:44.501Z,11.80
2018-12-06T17:45:14.218Z,11.80
2018-12-06T17:47:45.023Z,11.90
2018-12-06T17:50:14.956Z,11.90
2018-12-06T17:52:44.896Z,11.90
2018-12-06T17:55:14.893Z,11.90
2018-12-06T17:57:44.765Z,11.90
2018-12-06T18:00:14.669Z,12.00
2018-12-06T18:02:44.679Z,11.90
2018-12-06T18:05:14.448Z,11.90
2018-12-06T18:07:44.681Z,12.00
2018-12-06T18:10:14.994Z,12.10
2018-12-06T18:12:44.792Z,12.10
2018-12-06T18:15:14.865Z,12.10
2018-12-06T18:17:44.785Z,12.10
2018-12-06T18:20:14.703Z,12.10
2018-12-06T18:22:44.641Z,12.00
2018-12-06T18:25:14.696Z,12.10
2018-12-06T18:27:44.396Z,12.10
2018-12-06T18:30:15.360Z,12.00
2018-12-06T18:32:46.625Z,12.10
2018-12-06T18:35:16.542Z,12.10
2018-12-06T18:37:46.458Z,12.10
2018-12-06T18:40:16.353Z,12.10
2018-12-06T18:42:46.384Z,12.10
2018-12-06T18:45:16.436Z,12.10
2018-12-06T18:47:46.464Z,12.10
2018-12-06T18:50:16.244Z,12.10
2018-12-06T18:52:46.093Z,12.10
2018-12-06T18:55:15.861Z,12.10
2018-12-06T18:57:45.664Z,12.10
2018-12-06T19:00:15.588Z,12.10
2018-12-06T19:02:45.497Z,12.10
2018-12-06T19:05:15.649Z,12.10
2018-12-06T19:07:45.607Z,12.10
2018-12-06T19:10:16.671Z,12.10
2018-12-06T19:12:46.516Z,12.10
2018-12-06T19:15:16.649Z,12.10
2018-12-06T19:17:46.374Z,12.00
2018-12-06T19:20:17.881Z,12.00
2018-12-06T19:22:47.737Z,12.00
2018-12-06T19:25:17.582Z,12.00
2018-12-06T19:27:47.421Z,12.00
2018-12-06T19:30:17.504Z,12.00
2018-12-06T19:32:48.229Z,12.00
2018-12-06T19:35:17.932Z,12.10
2018-12-06T19:37:48.653Z,12.10
2018-12-06T19:40:18.366Z,12.10
2018-12-06T19:42:48.121Z,12.00
2018-12-06T19:45:18.036Z,12.00
2018-12-06T19:47:47.934Z,11.90
2018-12-06T19:50:17.832Z,11.90
2018-12-06T19:52:47.524Z,11.90
2018-12-06T19:55:17.492Z,11.90
2018-12-06T19:57:47.313Z,11.80
2018-12-06T20:00:17.217Z,11.80
2018-12-06T20:02:47.120Z,11.80
2018-12-06T20:05:17.048Z,11.80
2018-12-06T20:07:46.753Z,11.70
2018-12-06T20:10:16.780Z,11.80
2018-12-06T20:12:46.684Z,11.70
2018-12-06T20:15:16.710Z,11.70
2018-12-06T20:17:46.573Z,11.70
2018-12-06T20:20:23.341Z,11.70
2018-12-06T20:22:48.309Z,11.70
2018-12-06T20:25:18.156Z,11.60
2018-12-06T20:27:47.888Z,11.60
2018-12-06T20:30:18.108Z,11.60
2018-12-06T20:32:47.933Z,11.50
2018-12-06T20:35:18.047Z,11.50
2018-12-06T20:37:47.898Z,11.50
2018-12-06T20:40:17.693Z,11.50
2018-12-06T20:42:47.596Z,11.50
2018-12-06T20:45:17.681Z,11.60
2018-12-06T20:47:47.496Z,11.60
2018-12-06T20:50:18.381Z,11.60
2018-12-06T20:52:48.140Z,11.60
2018-12-06T20:55:18.088Z,11.70
2018-12-06T20:57:48.093Z,11.80
2018-12-06T21:00:18.496Z,11.80
2018-12-06T21:02:49.969Z,11.90
2018-12-06T21:05:20.797Z,11.90
2018-12-06T21:07:50.507Z,11.90
2018-12-06T21:10:20.370Z,12.00
2018-12-06T21:12:50.282Z,11.90
2018-12-06T21:15:20.049Z,11.90
2018-12-06T21:17:49.901Z,11.90
2018-12-06T21:20:19.940Z,11.90
2018-12-06T21:22:50.063Z,12.00
2018-12-06T21:25:19.853Z,11.90
2018-12-06T21:27:50.142Z,12.00
2018-12-06T21:30:19.733Z,12.00
2018-12-06T21:32:49.936Z,12.00
2018-12-06T21:35:20.860Z,12.00
2018-12-06T21:37:50.628Z,12.00
2018-12-06T21:40:20.561Z,12.00
2018-12-06T21:42:50.344Z,11.90
2018-12-06T21:45:20.078Z,11.90
2018-12-06T21:47:49.892Z,11.90
2018-12-06T21:50:19.708Z,11.80
2018-12-06T21:52:49.436Z,11.80
2018-12-06T21:55:19.220Z,11.90
2018-12-06T21:57:49.091Z,11.90
2018-12-06T22:00:19.088Z,11.90
2018-12-06T22:02:48.832Z,11.90
2018-12-06T22:05:18.597Z,11.90
2018-12-06T22:07:48.905Z,11.90
2018-12-06T22:10:18.826Z,11.90
2018-12-06T22:12:48.735Z,11.90
2018-12-06T22:15:18.753Z,11.90
2018-12-06T22:17:48.521Z,12.00
2018-12-06T22:20:18.359Z,12.00
2018-12-06T22:22:48.141Z,12.10
2018-12-06T22:25:18.016Z,12.10
2018-12-06T22:27:47.873Z,12.00
2018-12-06T22:30:17.716Z,12.10
2018-12-06T22:32:47.588Z,12.10
2018-12-06T22:35:17.477Z,12.20
2018-12-06T22:37:47.268Z,12.10
2018-12-06T22:40:17.169Z,12.20
2018-12-06T22:42:47.092Z,12.10
2018-12-06T22:45:55.720Z,12.10
2018-12-06T22:48:25.580Z,12.20
2018-12-06T22:50:55.464Z,12.20
2018-12-06T22:53:25.321Z,12.10
2018-12-06T22:55:55.170Z,12.10
2018-12-06T22:58:25.329Z,12.20
2018-12-06T23:00:56.749Z,12.20
2018-12-06T23:03:28.959Z,12.20
2018-12-06T23:05:58.884Z,12.20
2018-12-06T23:08:28.741Z,12.10
2018-12-06T23:10:58.609Z,12.20
2018-12-06T23:13:28.374Z,12.20
2018-12-06T23:15:58.328Z,12.20
2018-12-06T23:18:28.002Z,12.20
2018-12-06T23:20:57.857Z,12.20
2018-12-06T23:23:27.884Z,12.20
2018-12-06T23:25:57.676Z,12.20
2018-12-06T23:28:27.834Z,12.20
2018-12-06T23:30:57.613Z,12.20
2018-12-06T23:33:31.986Z,12.20
2018-12-06T23:35:59.525Z,12.20
2018-12-06T23:38:29.457Z,12.10
2018-12-06T23:40:59.372Z,12.20
2018-12-06T23:43:29.392Z,12.30
2018-12-06T23:45:59.308Z,12.20
2018-12-06T23:48:29.101Z,12.20
2018-12-06T23:51:10.001Z,12.20
2018-12-06T23:53:39.762Z,12.20
2018-12-06T23:56:09.415Z,12.20
2018-12-06T23:58:39.316Z,12.20
